createdAt,value
2019-01-03T00:01:40.929Z,101785.23
2019-01-03T00:07:04.938Z,101784.40
2019-01-03T00:12:34.117Z,101785.30
2019-01-03T00:18:04.109Z,101792.16
2019-01-03T00:23:40.404Z,101798.27
2019-01-03T00:29:04.847Z,101790.80
2019-01-03T00:34:31.955Z,101795.04
2019-01-03T00:39:47.402Z,101803.86
2019-01-03T00:45:22.608Z,101804.06
2019-01-03T00:50:58.880Z,101806.67
2019-01-03T00:56:21.762Z,101814.36
2019-01-03T01:01:44.495Z,101825.52
2019-01-03T01:07:17.830Z,101834.34
2019-01-03T01:12:57.202Z,101828.06
2019-01-03T01:18:30.182Z,101841.28
2019-01-03T01:24:07.451Z,101846.64
2019-01-03T01:29:30.760Z,101852.09
2019-01-03T01:35:09.818Z,101854.05
2019-01-03T01:40:32.622Z,101858.92
2019-01-03T01:45:59.783Z,101858.16
2019-01-03T01:51:22.579Z,101858.98
2019-01-03T01:56:45.246Z,101856.52
2019-01-03T02:02:18.410Z,101860.83
2019-01-03T02:07:39.616Z,101864.13
2019-01-03T02:13:22.019Z,101857.89
2019-01-03T02:18:44.193Z,101855.75
2019-01-03T02:24:08.648Z,101850.53
2019-01-03T02:29:31.522Z,101842.91
2019-01-03T02:34:54.484Z,101837.38
2019-01-03T02:40:27.458Z,101841.48
2019-01-03T02:45:48.566Z,101835.45
2019-01-03T02:51:08.878Z,101827.98
2019-01-03T02:56:28.977Z,101826.67
2019-01-03T03:02:05.133Z,101823.44
2019-01-03T03:07:27.968Z,101815.31
2019-01-03T03:12:51.984Z,101823.53
2019-01-03T03:18:28.793Z,101822.75
2019-01-03T03:23:44.885Z,101825.84
2019-01-03T03:29:13.217Z,101824.86
2019-01-03T03:34:49.212Z,101831.39
2019-01-03T03:40:12.538Z,101830.38
2019-01-03T03:45:29.246Z,101833.50
2019-01-03T03:50:55.934Z,101829.55
2019-01-03T03:56:22.482Z,101834.00
2019-01-03T04:01:45.175Z,101841.18
2019-01-03T04:07:24.573Z,101839.20
2019-01-03T04:13:03.774Z,101830.36
2019-01-03T04:18:26.960Z,101824.84
2019-01-03T04:24:09.388Z,101826.47
2019-01-03T04:29:39.124Z,101832.97
2019-01-03T04:34:55.913Z,101831.84
2019-01-03T04:40:20.439Z,101834.13
2019-01-03T04:45:43.114Z,101835.28
2019-01-03T04:51:22.982Z,101833.29
2019-01-03T04:57:05.017Z,101838.87
2019-01-03T05:02:21.898Z,101840.67
2019-01-03T05:07:44.946Z,101834.83
2019-01-03T05:13:07.939Z,101826.17
2019-01-03T05:18:32.079Z,101824.86
2019-01-03T05:24:08.302Z,101834.00
2019-01-03T05:29:28.189Z,101832.52
2019-01-03T05:34:51.242Z,101831.39
2019-01-03T05:40:13.912Z,101839.38
2019-01-03T05:45:36.770Z,101829.38
2019-01-03T05:51:06.923Z,101828.92
2019-01-03T05:56:39.924Z,101828.39
2019-01-03T06:02:04.032Z,101834.95
2019-01-03T06:07:27.784Z,101835.28
2019-01-03T06:12:44.175Z,101833.31
2019-01-03T06:18:14.345Z,101832.06
2019-01-03T06:23:50.231Z,101843.64
2019-01-03T06:29:21.241Z,101837.47
2019-01-03T06:34:44.294Z,101841.86
2019-01-03T06:40:11.387Z,101836.51
2019-01-03T06:45:34.025Z,101831.01
2019-01-03T06:51:01.427Z,101832.62
2019-01-03T06:56:34.613Z,101849.21
2019-01-03T07:02:07.026Z,101845.07
2019-01-03T07:07:46.394Z,101845.07
2019-01-03T07:13:09.257Z,101837.41
2019-01-03T07:18:39.412Z,101842.16
2019-01-03T07:24:02.335Z,101842.51
2019-01-03T07:29:38.182Z,101850.04
2019-01-03T07:35:05.258Z,101851.50
2019-01-03T07:40:30.172Z,101867.28
2019-01-03T07:45:55.598Z,101878.52
2019-01-03T07:51:18.802Z,101880.92
2019-01-03T07:56:41.543Z,101887.32
2019-01-03T08:02:03.154Z,101890.59
2019-01-03T08:07:22.447Z,101898.57
2019-01-03T08:12:45.199Z,101909.36
2019-01-03T08:18:18.349Z,101919.77
2019-01-03T08:23:57.568Z,101907.02
2019-01-03T08:29:34.267Z,101897.31
2019-01-03T08:35:00.448Z,101901.98
2019-01-03T08:40:40.173Z,101898.86
2019-01-03T08:46:10.383Z,101903.49
2019-01-03T08:51:43.731Z,101903.85
2019-01-03T08:57:23.287Z,101906.40
2019-01-03T09:02:55.641Z,101905.53
2019-01-03T09:08:21.183Z,101911.20
2019-01-03T09:13:45.308Z,101900.38
2019-01-03T09:19:12.142Z,101906.33
2019-01-03T09:24:38.969Z,101908.75
2019-01-03T09:30:21.655Z,101911.43
2019-01-03T09:36:01.925Z,101900.60
2019-01-03T09:41:29.495Z,101907.83
2019-01-03T09:46:35.445Z,101897.94
2019-01-03T09:51:40.761Z,101893.08
2019-01-03T09:56:45.955Z,101891.63
2019-01-03T10:01:51.495Z,101885.22
2019-01-03T10:06:57.304Z,101878.17
2019-01-03T10:12:03.056Z,101873.72
2019-01-03T10:17:08.395Z,101871.77
2019-01-03T10:22:13.852Z,101873.67
2019-01-03T10:27:19.083Z,101856.48
2019-01-03T10:32:24.997Z,101853.15
2019-01-03T10:37:30.767Z,101849.81
2019-01-03T10:42:36.158Z,101839.63
2019-01-03T10:47:41.381Z,101847.09
2019-01-03T10:52:47.186Z,101851.39
2019-01-03T10:57:52.625Z,101852.97
2019-01-03T11:02:58.117Z,101857.45
2019-01-03T11:08:03.540Z,101860.21
2019-01-03T11:13:09.991Z,101867.87
2019-01-03T11:18:15.572Z,101864.59
2019-01-03T11:23:26.477Z,101864.27
2019-01-03T11:28:32.797Z,101843.84
2019-01-03T11:33:44.155Z,101839.05
2019-01-03T11:38:50.774Z,101838.13
2019-01-03T11:44:07.967Z,101845.54
2019-01-03T11:49:14.162Z,101840.30
2019-01-03T11:54:22.005Z,101833.82
2019-01-03T11:59:27.803Z,101832.57
2019-01-03T12:04:34.381Z,101821.58
2019-01-03T12:09:40.109Z,101823.47
2019-01-03T12:14:45.443Z,101825.64
2019-01-03T12:20:02.447Z,101828.58
2019-01-03T12:25:08.137Z,101808.61
2019-01-03T12:30:13.467Z,101813.37
2019-01-03T12:35:18.678Z,101807.80
2019-01-03T12:40:24.133Z,101813.69
2019-01-03T12:45:29.547Z,101815.92
2019-01-03T12:50:35.271Z,101818.41
2019-01-03T12:55:40.555Z,101813.30
2019-01-03T13:00:46.144Z,101815.00
2019-01-03T13:05:51.606Z,101822.53
2019-01-03T13:10:56.810Z,101814.67
2019-01-03T13:16:02.047Z,101815.86
2019-01-03T13:21:12.967Z,101821.98
2019-01-03T13:26:18.107Z,101827.17
2019-01-03T13:31:26.909Z,101829.92
2019-01-03T13:36:35.255Z,101827.23
2019-01-03T13:41:45.791Z,101820.36
2019-01-03T13:46:51.089Z,101820.04
2019-01-03T13:51:57.298Z,101827.97
2019-01-03T13:57:03.967Z,101825.41
2019-01-03T14:02:14.416Z,101822.73
2019-01-03T14:07:20.116Z,101835.03
2019-01-03T14:12:25.145Z,101834.33
2019-01-03T14:17:31.867Z,101841.27
2019-01-03T14:22:37.756Z,101849.80
2019-01-03T14:27:43.257Z,101851.24
2019-01-03T14:32:53.535Z,101849.12
2019-01-03T14:37:59.976Z,101845.13
2019-01-03T14:43:05.819Z,101842.00
2019-01-03T14:48:13.386Z,101852.55
2019-01-03T14:53:18.631Z,101847.30
2019-01-03T14:58:24.203Z,101845.07
2019-01-03T15:03:29.418Z,101857.22
2019-01-03T15:08:34.653Z,101847.75
2019-01-03T15:13:39.977Z,101848.81
2019-01-03T15:18:45.806Z,101847.17
2019-01-03T15:23:51.053Z,101856.03
2019-01-03T15:28:56.153Z,101864.59
2019-01-03T15:34:01.417Z,101863.38
2019-01-03T15:39:06.871Z,101860.76
2019-01-03T15:44:12.047Z,101861.84
2019-01-03T15:49:17.268Z,101866.38
2019-01-03T15:54:22.759Z,101871.49
2019-01-03T15:59:27.912Z,101882.35
2019-01-03T16:04:33.105Z,101895.80
2019-01-03T16:09:39.667Z,101895.53
2019-01-03T16:14:45.509Z,101898.27
2019-01-03T16:19:50.677Z,101902.86
2019-01-03T16:24:55.759Z,101904.63
2019-01-03T16:30:00.938Z,101903.66
2019-01-03T16:35:06.803Z,101915.50
2019-01-03T16:40:13.412Z,101913.20
2019-01-03T16:45:19.189Z,101899.98
2019-01-03T16:50:24.588Z,101909.09
2019-01-03T16:55:30.895Z,101911.90
2019-01-03T17:00:36.333Z,101912.27
2019-01-03T17:05:41.893Z,101910.64
2019-01-03T17:10:47.198Z,101919.11
2019-01-03T17:15:52.460Z,101920.48
2019-01-03T17:21:00.477Z,101912.43
2019-01-03T17:26:09.359Z,101918.84
2019-01-03T17:31:14.932Z,101918.07
2019-01-03T17:36:20.687Z,101924.94
2019-01-03T17:41:28.137Z,101922.00
2019-01-03T17:46:35.831Z,101915.64
2019-01-03T17:51:43.163Z,101913.47
2019-01-03T17:56:48.573Z,101912.30
2019-01-03T18:01:54.726Z,101905.27
2019-01-03T18:07:01.752Z,101897.59
2019-01-03T18:12:07.079Z,101896.30
2019-01-03T18:17:12.797Z,101903.05
2019-01-03T18:22:18.757Z,101897.41
2019-01-03T18:27:26.191Z,101910.83
2019-01-03T18:32:32.352Z,101909.06
2019-01-03T18:37:38.209Z,101910.31
2019-01-03T18:42:45.038Z,101911.81
2019-01-03T18:47:50.757Z,101925.37
2019-01-03T18:52:56.115Z,101921.97
2019-01-03T18:58:02.313Z,101924.30
2019-01-03T19:03:08.328Z,101927.84
2019-01-03T19:08:13.545Z,101925.55
2019-01-03T19:13:18.725Z,101929.94
2019-01-03T19:18:26.290Z,101932.70
2019-01-03T19:23:33.157Z,101929.67
2019-01-03T19:28:39.386Z,101936.30
2019-01-03T19:33:48.739Z,101943.33
2019-01-03T19:38:59.075Z,101941.75
2019-01-03T19:44:09.598Z,101938.98
2019-01-03T19:49:14.868Z,101935.70
2019-01-03T19:54:21.745Z,101946.23
2019-01-03T19:59:29.412Z,101953.44
2019-01-03T20:04:36.035Z,101965.00
2019-01-03T20:10:34.387Z,101969.35
2019-01-03T20:15:43.882Z,101971.77
2019-01-03T20:20:53.961Z,101961.87
2019-01-03T20:25:59.841Z,101960.75
2019-01-03T20:31:10.922Z,101960.05
2019-01-03T20:36:19.869Z,101955.37
2019-01-03T20:41:29.673Z,101957.24
2019-01-03T20:46:39.099Z,101955.09
2019-01-03T20:51:44.717Z,101955.93
2019-01-03T20:56:52.391Z,101951.20
2019-01-03T21:01:59.729Z,101945.97
2019-01-03T21:07:05.862Z,101948.36
2019-01-03T21:12:11.944Z,101947.05
2019-01-03T21:17:17.477Z,101947.90
2019-01-03T21:22:23.965Z,101946.03
2019-01-03T21:27:30.085Z,101957.38
2019-01-03T21:32:45.857Z,101950.36
2019-01-03T21:37:55.245Z,101941.67
2019-01-03T21:43:03.836Z,101931.72
2019-01-03T21:48:08.912Z,101946.15
2019-01-03T21:53:17.696Z,101939.94
2019-01-03T21:58:23.380Z,101944.38
2019-01-03T22:03:39.385Z,101941.33
2019-01-03T22:08:48.266Z,101938.39
2019-01-03T22:13:54.042Z,101936.61
2019-01-03T22:19:01.507Z,101938.25
2019-01-03T22:24:10.304Z,101936.90
2019-01-03T22:29:16.010Z,101937.03
2019-01-03T22:34:21.380Z,101934.47
2019-01-03T22:39:27.610Z,101940.34
2019-01-03T22:44:33.270Z,101933.70
2019-01-03T22:49:40.158Z,101930.76
2019-01-03T22:54:45.655Z,101943.55
2019-01-03T22:59:52.678Z,101941.70
2019-01-03T23:04:58.272Z,101958.38
2019-01-03T23:10:03.677Z,101953.39
2019-01-03T23:15:10.472Z,101950.41
2019-01-03T23:20:16.744Z,101948.48
2019-01-03T23:25:21.895Z,101935.40
2019-01-03T23:30:27.400Z,101930.50
2019-01-03T23:35:33.834Z,101942.70
2019-01-03T23:40:39.470Z,101949.09
2019-01-03T23:45:44.869Z,101944.19
2019-01-03T23:50:50.459Z,101944.19
2019-01-03T23:55:59.444Z,101934.52
